Time;durP1;ratioP1;P1;durP2;ratioP2;P2;SDS_P1;SDS_P2;PMS_P1;PMS_P2;Temp;Humidity;BMP_temperature;BMP_pressure;BME280_temperature;BME280_humidity;BME280_pressure;Samples;Min_cycle;Max_cycle;Signal;HPM_P1;HPM_P2
2022/10/03 00:00:00;;;;;;;3.92;2.63;;;11.10;99.90;;;;;;5020834;28;20231;-37
2022/10/03 00:02:52;;;;;;;2.03;1.70;;;11.00;99.90;;;;;;5017011;28;20404;-41
2022/10/03 00:05:30;;;;;;;9.43;2.38;;;10.90;99.90;;;;;;5015297;28;20034;-39
2022/10/03 00:08:19;;;;;;;2.25;1.27;;;10.90;99.90;;;;;;5018480;28;20025;-41
2022/10/03 00:11:19;;;;;;;84.82;10.98;;;10.80;99.90;;;;;;4987467;28;20168;-42
2022/10/03 00:14:10;;;;;;;8.93;1.65;;;10.70;99.90;;;;;;5020016;28;20029;-40
2022/10/03 00:16:45;;;;;;;2.17;1.60;;;10.60;99.90;;;;;;5018932;28;20104;-41
2022/10/03 00:19:19;;;;;;;16.90;4.60;;;10.30;99.90;;;;;;5014765;28;20566;-38
2022/10/03 00:22:09;;;;;;;13.05;7.00;;;10.40;99.90;;;;;;5017229;28;20056;-41
2022/10/03 00:24:38;;;;;;;9.68;6.18;;;10.30;99.90;;;;;;5018177;28;20349;-39
2022/10/03 00:27:12;;;;;;;;;;;10.30;99.90;;;;;;5021001;28;20114;-40
2022/10/03 00:29:38;;;;;;;12.98;3.08;;;10.30;99.90;;;;;;5016891;28;20022;-37
2022/10/03 00:32:06;;;;;;;5.82;2.17;;;10.30;99.90;;;;;;5016162;28;20034;-40
2022/10/03 00:34:40;;;;;;;2.53;1.90;;;10.30;99.90;;;;;;5019836;28;20049;-39
2022/10/03 00:37:25;;;;;;;36.60;4.00;;;10.30;99.90;;;;;;5016517;28;20052;-38
2022/10/03 00:40:17;;;;;;;2.30;2.00;;;10.30;99.90;;;;;;5018062;28;20033;-39
2022/10/03 00:43:19;;;;;;;8.52;3.55;;;10.30;99.90;;;;;;5016965;28;20036;-36
2022/10/03 00:45:48;;;;;;;31.10;5.07;;;10.20;99.90;;;;;;5018639;28;20021;-41
2022/10/03 00:48:14;;;;;;;2.40;1.65;;;10.10;99.90;;;;;;5013359;28;20398;-42
2022/10/03 00:50:58;;;;;;;4.20;1.75;;;10.10;99.90;;;;;;5016066;28;20030;-42
2022/10/03 00:53:36;;;;;;;2.38;1.73;;;10.00;99.90;;;;;;5016119;28;20227;-41
2022/10/03 00:56:20;;;;;;;34.78;5.22;;;10.00;99.90;;;;;;5017442;28;20029;-37
2022/10/03 00:58:49;;;;;;;9.02;3.95;;;10.10;99.90;;;;;;5017121;28;20037;-36
2022/10/03 01:01:22;;;;;;;;;;;10.10;99.90;;;;;;5015576;28;20029;-33
2022/10/03 01:04:27;;;;;;;3.03;1.90;;;10.20;99.90;;;;;;5005923;28;19917;-33
2022/10/03 01:07:01;;;;;;;2.13;1.70;;;10.30;99.90;;;;;;5015464;28;20308;-35
2022/10/03 01:09:40;;;;;;;1.98;1.60;;;10.30;99.90;;;;;;5019362;28;20037;-34
2022/10/03 01:12:24;;;;;;;25.83;2.90;;;10.40;99.90;;;;;;5016468;28;20025;-36
2022/10/03 01:15:12;;;;;;;24.35;4.30;;;10.40;99.90;;;;;;5020295;28;20036;-34
2022/10/03 01:17:50;;;;;;;20.00;4.65;;;10.10;99.90;;;;;;5022258;28;20123;-32
2022/10/03 01:20:42;;;;;;;46.05;5.68;;;9.90;99.90;;;;;;5020157;28;20033;-34
2022/10/03 01:23:36;;;;;;;15.80;3.25;;;9.80;99.90;;;;;;5023632;28;20041;-33
2022/10/03 01:26:08;;;;;;;4.85;2.50;;;9.70;99.90;;;;;;5020002;28;20022;-31
2022/10/03 01:31:33;;;;;;;2.60;1.70;;;9.70;99.90;;;;;;5022506;28;20075;-32
2022/10/03 01:34:34;;;;;;;5.47;1.98;;;9.60;99.90;;;;;;5027564;28;20033;-32
2022/10/03 01:37:05;;;;;;;3.45;1.92;;;9.60;99.90;;;;;;5025733;28;20018;-32
2022/10/03 01:39:49;;;;;;;5.05;1.65;;;9.70;99.90;;;;;;5025900;28;20061;-35
2022/10/03 01:42:45;;;;;;;2.35;1.80;;;9.70;99.90;;;;;;5023260;28;20041;-31
2022/10/03 01:45:25;;;;;;;2.45;2.15;;;9.80;99.90;;;;;;5023120;28;20025;-31
2022/10/03 01:48:23;;;;;;;1.75;1.65;;;9.80;99.90;;;;;;5020236;28;20045;-34
2022/10/03 01:51:15;;;;;;;2.00;1.63;;;9.80;99.90;;;;;;5022556;28;20032;-32
2022/10/03 01:53:46;;;;;;;1.98;1.75;;;9.80;99.90;;;;;;5028090;28;20045;-32
2022/10/03 01:56:30;;;;;;;12.45;1.70;;;9.70;99.90;;;;;;5023859;28;20082;-32
2022/10/03 01:59:32;;;;;;;2.15;1.63;;;9.70;99.90;;;;;;5024655;28;20037;-33
2022/10/03 02:02:23;;;;;;;2.90;1.70;;;9.70;99.90;;;;;;4970037;28;20498;-33
2022/10/03 02:05:07;;;;;;;16.90;2.63;;;9.70;99.90;;;;;;5025830;28;20495;-31
2022/10/03 02:07:51;;;;;;;5.40;2.50;;;9.70;99.90;;;;;;5023539;28;20022;-32
2022/10/03 02:10:32;;;;;;;4.07;2.42;;;9.70;99.90;;;;;;5025346;28;20037;-31
2022/10/03 02:13:15;;;;;;;3.40;2.63;;;9.70;99.90;;;;;;5025669;28;20033;-33
2022/10/03 02:16:06;;;;;;;2.25;2.00;;;9.70;99.90;;;;;;5036715;28;20056;-31
2022/10/03 02:18:54;;;;;;;2.65;2.20;;;9.70;99.90;;;;;;5022015;28;20029;-32
2022/10/03 02:21:25;;;;;;;15.73;2.83;;;9.70;99.90;;;;;;5024855;28;20049;-31
2022/10/03 02:24:15;;;;;;;87.63;9.75;;;9.60;99.90;;;;;;5021467;28;20048;-33
2022/10/03 02:27:10;;;;;;;13.63;3.22;;;9.50;99.90;;;;;;5024823;28;20079;-36
2022/10/03 02:30:10;;;;;;;6.72;2.45;;;9.60;99.90;;;;;;5031924;28;20487;-31
2022/10/03 02:33:22;;;;;;;113.68;12.82;;;9.60;99.90;;;;;;5024073;28;20386;-32
2022/10/03 02:36:30;;;;;;;56.97;4.78;;;9.40;99.90;;;;;;5024403;28;20394;-32
2022/10/03 02:38:56;;;;;;;;;;;9.00;99.90;;;;;;5024863;28;20017;-30
2022/10/03 02:41:51;;;;;;;33.17;4.22;;;8.90;99.90;;;;;;5024845;28;19924;-33
2022/10/03 02:44:37;;;;;;;67.30;6.05;;;8.80;99.90;;;;;;5023182;28;20025;-33
2022/10/03 02:47:03;;;;;;;28.98;6.70;;;8.70;99.90;;;;;;5026352;28;20483;-31
2022/10/03 02:50:01;;;;;;;41.72;7.03;;;8.70;99.90;;;;;;5021636;28;20014;-32
2022/10/03 02:52:45;;;;;;;38.05;8.68;;;8.70;99.90;;;;;;5021804;28;20029;-31
2022/10/03 02:55:47;;;;;;;2.15;1.80;;;8.70;99.90;;;;;;5021194;28;20083;-33
2022/10/03 02:58:37;;;;;;;16.60;3.33;;;8.80;99.90;;;;;;5024767;28;20681;-35
2022/10/03 03:01:48;;;;;;;2.20;1.98;;;8.80;99.90;;;;;;5018089;28;20091;-32
2022/10/03 03:04:36;;;;;;;2.20;2.00;;;8.80;99.90;;;;;;5024758;28;20106;-33
2022/10/03 03:07:35;;;;;;;11.32;4.50;;;9.00;99.90;;;;;;5022197;28;20030;-34
2022/10/03 03:10:01;;;;;;;2.15;1.95;;;9.00;99.90;;;;;;5020242;28;20033;-32
2022/10/03 03:13:05;;;;;;;2.50;2.08;;;9.10;99.90;;;;;;5018994;28;20030;-32
2022/10/03 03:15:56;;;;;;;13.80;2.28;;;9.10;99.90;;;;;;5019536;28;20475;-34
2022/10/03 03:18:40;;;;;;;2.00;1.80;;;9.20;99.90;;;;;;5025450;28;20657;-33
2022/10/03 03:21:28;;;;;;;3.45;2.05;;;9.10;99.90;;;;;;5021473;28;20069;-35
2022/10/03 03:24:17;;;;;;;51.85;5.93;;;9.20;99.90;;;;;;5023594;28;20056;-36
2022/10/03 03:27:12;;;;;;;22.10;4.13;;;9.20;99.90;;;;;;5023689;28;20607;-34
2022/10/03 03:30:05;;;;;;;11.20;3.17;;;9.20;99.90;;;;;;5022121;28;20036;-33
2022/10/03 03:32:44;;;;;;;20.02;5.07;;;9.00;99.90;;;;;;5022732;28;20091;-34
2022/10/03 03:35:25;;;;;;;8.77;2.85;;;8.90;99.90;;;;;;5026127;28;20033;-31
2022/10/03 03:38:03;;;;;;;25.48;3.58;;;8.70;99.90;;;;;;5019326;28;20393;-34
2022/10/03 03:41:04;;;;;;;2.83;2.45;;;8.70;99.90;;;;;;5023070;28;20033;-33
2022/10/03 03:43:46;;;;;;;48.00;5.03;;;8.60;99.90;;;;;;5005928;28;20037;-31
2022/10/03 03:46:20;;;;;;;19.27;4.05;;;8.70;99.90;;;;;;5022228;28;20049;-33
2022/10/03 03:49:16;;;;;;;24.23;5.13;;;8.70;99.90;;;;;;5025433;28;20026;-31
2022/10/03 03:52:22;;;;;;;31.85;6.38;;;8.70;99.90;;;;;;5016155;28;20028;-33
2022/10/03 03:55:11;;;;;;;2.13;1.83;;;8.70;99.90;;;;;;5022065;28;20040;-33
2022/10/03 03:58:09;;;;;;;14.32;3.45;;;8.80;99.90;;;;;;5022034;28;20025;-36
2022/10/03 04:00:46;;;;;;;2.92;2.33;;;8.80;99.90;;;;;;5020227;28;20121;-37
2022/10/03 04:03:34;;;;;;;4.90;2.40;;;8.90;99.90;;;;;;5025103;28;20025;-31
2022/10/03 04:06:05;;;;;;;2.95;2.35;;;8.90;99.90;;;;;;5021378;28;20035;-31
2022/10/03 04:08:58;;;;;;;2.88;2.22;;;8.90;99.90;;;;;;5018760;28;20379;-32
2022/10/03 04:11:33;;;;;;;31.50;3.55;;;9.00;99.90;;;;;;5022846;28;20038;-32
2022/10/03 04:14:13;;;;;;;4.15;3.13;;;9.00;99.90;;;;;;5020802;28;20029;-31
2022/10/03 04:20:01;;;;;;;16.65;3.05;;;9.10;99.90;;;;;;5022521;28;20041;-32
2022/10/03 04:22:50;;;;;;;2.08;1.80;;;9.00;99.90;;;;;;5022060;28;20026;-32
2022/10/03 04:25:45;;;;;;;3.42;2.38;;;9.10;99.90;;;;;;5024154;28;20022;-31
2022/10/03 04:28:21;;;;;;;24.80;4.85;;;9.10;99.90;;;;;;5020190;28;20032;-34
2022/10/03 04:31:24;;;;;;;2.85;2.38;;;9.00;99.90;;;;;;5020626;28;20041;-36
2022/10/03 04:34:04;;;;;;;2.58;2.15;;;9.00;99.90;;;;;;5020031;28;20036;-33
2022/10/03 04:36:52;;;;;;;16.58;5.03;;;9.00;99.90;;;;;;5022603;28;20040;-31
2022/10/03 04:39:23;;;;;;;8.65;3.88;;;9.10;99.90;;;;;;5020613;28;20076;-32
2022/10/03 04:42:18;;;;;;;13.68;6.00;;;9.00;99.90;;;;;;5021607;28;20032;-32
2022/10/03 04:45:11;;;;;;;2.95;2.40;;;9.00;99.90;;;;;;5024031;28;20155;-35
2022/10/03 04:47:57;;;;;;;48.08;5.72;;;9.00;99.90;;;;;;5022017;28;20241;-33
2022/10/03 04:50:44;;;;;;;68.00;8.30;;;8.90;99.90;;;;;;5019855;28;20033;-31
2022/10/03 04:53:20;;;;;;;26.38;5.20;;;8.90;99.90;;;;;;5021874;28;20048;-31
2022/10/03 04:56:19;;;;;;;5.72;2.67;;;8.90;99.90;;;;;;5025111;28;20497;-31
2022/10/03 04:59:21;;;;;;;33.75;6.75;;;8.90;99.90;;;;;;5018735;28;20068;-33
2022/10/03 05:02:02;;;;;;;36.75;5.22;;;8.80;99.90;;;;;;5020841;28;20091;-33
2022/10/03 05:04:46;;;;;;;25.42;4.07;;;8.70;99.90;;;;;;5020836;28;20033;-32
2022/10/03 05:07:41;;;;;;;25.05;7.78;;;8.70;99.90;;;;;;5020204;28;20079;-31
2022/10/03 05:10:41;;;;;;;35.25;6.80;;;8.70;99.90;;;;;;5024230;28;20068;-32
2022/10/03 05:13:31;;;;;;;32.65;4.13;;;8.60;99.90;;;;;;5021595;28;20423;-32
2022/10/03 05:16:27;;;;;;;21.15;6.57;;;8.70;99.90;;;;;;5020969;28;20082;-31
2022/10/03 05:18:56;;;;;;;7.57;4.95;;;8.70;99.90;;;;;;5021364;28;20453;-36
2022/10/03 05:21:59;;;;;;;42.90;6.97;;;8.70;99.90;;;;;;5022093;28;20403;-33
2022/10/03 05:24:34;;;;;;;32.58;9.05;;;8.70;99.90;;;;;;5019573;28;20060;-32
2022/10/03 05:27:18;;;;;;;2.72;2.00;;;8.60;99.90;;;;;;5020520;28;20033;-33
2022/10/03 05:29:54;;;;;;;10.93;3.17;;;8.60;99.90;;;;;;5023456;28;20502;-31
2022/10/03 05:32:22;;;;;;;3.70;2.30;;;8.60;99.90;;;;;;5015243;28;20128;-31
2022/10/03 05:35:18;;;;;;;29.70;4.28;;;8.50;99.90;;;;;;5020119;28;20044;-32
2022/10/03 05:38:03;;;;;;;6.20;2.33;;;8.50;99.90;;;;;;5022355;28;20137;-31
2022/10/03 05:40:33;;;;;;;6.85;3.00;;;8.30;99.90;;;;;;5020621;28;20380;-32
2022/10/03 05:43:13;;;;;;;3.13;2.17;;;8.30;99.90;;;;;;5020046;28;20099;-32
2022/10/03 05:46:02;;;;;;;14.55;3.03;;;8.30;99.90;;;;;;5021714;28;20041;-33
2022/10/03 05:48:46;;;;;;;4.20;2.13;;;8.20;99.90;;;;;;5020190;28;20079;-30
2022/10/03 05:51:21;;;;;;;22.40;9.15;;;8.30;99.90;;;;;;5020356;28;20067;-31
2022/10/03 05:54:28;;;;;;;18.73;3.13;;;8.30;99.90;;;;;;5017578;28;20032;-34
2022/10/03 05:56:57;;;;;;;8.93;2.70;;;8.40;99.90;;;;;;5020888;28;20030;-31
2022/10/03 05:59:37;;;;;;;30.48;3.83;;;8.50;99.90;;;;;;5018673;28;20083;-31
2022/10/03 06:02:06;;;;;;;28.13;3.22;;;8.30;99.90;;;;;;5022494;28;20572;-36
2022/10/03 06:04:52;;;;;;;14.13;2.30;;;8.30;99.90;;;;;;5023833;28;20057;-31
2022/10/03 06:07:40;;;;;;;4.43;2.83;;;8.20;99.90;;;;;;5025378;28;20071;-31
2022/10/03 06:10:38;;;;;;;5.25;2.85;;;8.20;99.90;;;;;;5025406;28;20045;-33
2022/10/03 06:13:25;;;;;;;3.95;2.63;;;8.30;99.90;;;;;;5025730;28;20187;-35
2022/10/03 06:16:23;;;;;;;3.13;2.80;;;8.40;99.90;;;;;;5021033;28;20438;-32
2022/10/03 06:18:49;;;;;;;;;;;8.50;99.90;;;;;;5025950;28;20048;-32
2022/10/03 06:21:36;;;;;;;3.70;2.60;;;8.50;99.90;;;;;;5025653;28;19917;-33
2022/10/03 06:24:20;;;;;;;2.40;2.17;;;8.40;99.90;;;;;;5026746;28;20076;-33
2022/10/03 06:27:04;;;;;;;3.17;2.45;;;8.30;99.90;;;;;;5027193;28;20026;-32
2022/10/03 06:30:11;;;;;;;3.38;2.70;;;8.40;99.90;;;;;;5020678;28;20045;-33
2022/10/03 06:32:58;;;;;;;3.78;2.78;;;8.20;99.90;;;;;;5020020;28;20041;-32
2022/10/03 06:35:38;;;;;;;3.13;2.75;;;8.20;99.90;;;;;;5024381;28;20132;-33
2022/10/03 06:38:42;;;;;;;5.32;3.05;;;8.30;99.90;;;;;;5024512;28;20029;-31
2022/10/03 06:41:48;;;;;;;4.28;2.90;;;8.40;99.90;;;;;;5025303;28;20120;-33
2022/10/03 06:44:20;;;;;;;3.33;2.63;;;8.50;99.90;;;;;;5021043;28;20033;-33
2022/10/03 06:46:55;;;;;;;4.85;2.47;;;8.60;99.90;;;;;;5026128;28;20406;-31
2022/10/03 06:49:27;;;;;;;4.68;3.25;;;8.50;99.90;;;;;;5022915;28;20406;-34
2022/10/03 06:52:35;;;;;;;4.00;2.75;;;8.50;99.90;;;;;;5023671;28;20037;-31
2022/10/03 06:55:34;;;;;;;3.97;2.78;;;8.60;99.90;;;;;;5023565;28;20046;-31
2022/10/03 06:58:19;;;;;;;3.92;2.70;;;8.50;99.90;;;;;;5023462;28;20491;-31
2022/10/03 07:01:11;;;;;;;5.60;3.15;;;8.60;99.90;;;;;;5024147;28;20075;-35
2022/10/03 07:04:04;;;;;;;3.88;3.05;;;8.60;99.90;;;;;;5021181;28;20033;-32
2022/10/03 07:06:47;;;;;;;4.80;3.42;;;8.70;99.90;;;;;;5022574;28;20092;-34
2022/10/03 07:09:47;;;;;;;4.63;3.45;;;8.70;99.90;;;;;;5023969;28;20029;-33
2022/10/03 07:12:30;;;;;;;4.63;3.28;;;8.70;99.90;;;;;;5021021;28;20036;-33
2022/10/03 07:15:25;;;;;;;6.07;3.92;;;8.80;99.90;;;;;;5021472;28;20034;-31
2022/10/03 07:18:07;;;;;;;5.30;3.13;;;8.70;99.90;;;;;;5024016;28;20044;-32
2022/10/03 07:21:10;;;;;;;5.07;3.47;;;8.80;99.90;;;;;;5022678;28;20431;-31
2022/10/03 07:24:10;;;;;;;6.03;3.25;;;9.00;99.90;;;;;;5022397;28;20029;-31
2022/10/03 07:27:04;;;;;;;4.88;3.65;;;9.00;99.90;;;;;;5024294;28;20041;-32
2022/10/03 07:30:04;;;;;;;3.90;3.17;;;9.00;99.90;;;;;;5021831;28;20036;-35
2022/10/03 07:32:47;;;;;;;5.72;3.75;;;9.10;99.90;;;;;;5024704;28;20467;-33
2022/10/03 07:39:11;;;;;;;5.97;3.53;;;9.30;99.90;;;;;;5017455;28;20103;-34
2022/10/03 07:41:43;;;;;;;5.57;3.60;;;9.40;99.90;;;;;;5010760;28;20239;-32
2022/10/03 07:44:41;;;;;;;7.32;5.00;;;9.50;99.90;;;;;;5018816;28;20469;-35
2022/10/03 07:47:15;;;;;;;7.63;5.18;;;9.70;99.90;;;;;;5022398;28;20033;-33
2022/10/03 07:49:56;;;;;;;8.02;4.75;;;9.80;99.90;;;;;;5021055;28;20087;-32
2022/10/03 07:52:46;;;;;;;7.65;4.97;;;10.00;99.90;;;;;;5024028;28;20711;-31
2022/10/03 07:55:41;;;;;;;7.45;4.93;;;10.20;99.90;;;;;;5019128;28;20495;-32
2022/10/03 07:58:37;;;;;;;7.72;4.22;;;10.50;99.90;;;;;;5019889;28;20075;-34
2022/10/03 08:01:12;;;;;;;8.18;4.80;;;10.60;99.90;;;;;;5022864;28;20132;-31
2022/10/03 08:03:55;;;;;;;8.82;5.18;;;10.80;99.90;;;;;;5021784;28;20100;-35
2022/10/03 08:06:45;;;;;;;8.60;5.38;;;11.00;99.90;;;;;;5020624;28;20037;-33
2022/10/03 08:09:46;;;;;;;7.78;4.97;;;11.10;99.90;;;;;;5019485;28;20418;-32
2022/10/03 08:12:18;;;;;;;10.63;5.20;;;11.10;99.90;;;;;;5023570;28;20112;-30
2022/10/03 08:15:08;;;;;;;9.73;5.90;;;11.20;99.90;;;;;;5017350;28;20037;-34
2022/10/03 08:17:54;;;;;;;8.35;4.60;;;11.20;99.90;;;;;;5023729;28;20513;-31
2022/10/03 08:20:55;;;;;;;7.97;5.05;;;11.20;99.90;;;;;;5027433;28;20092;-31
2022/10/03 08:23:48;;;;;;;7.82;4.80;;;11.10;99.90;;;;;;5016760;28;20041;-32
2022/10/03 08:26:38;;;;;;;9.50;5.40;;;11.00;99.90;;;;;;5018044;28;20127;-31
2022/10/03 08:29:33;;;;;;;10.48;5.28;;;11.00;99.90;;;;;;5013807;28;20052;-34
2022/10/03 08:32:36;;;;;;;13.07;6.20;;;10.90;99.90;;;;;;5019999;28;20037;-33
2022/10/03 08:35:10;;;;;;;9.55;5.82;;;11.00;99.90;;;;;;5020460;28;20052;-32
2022/10/03 08:38:09;;;;;;;13.95;6.97;;;11.10;99.90;;;;;;5022775;28;20052;-33
2022/10/03 08:40:59;;;;;;;11.15;5.70;;;11.10;99.90;;;;;;5022084;28;20433;-30
2022/10/03 08:43:43;;;;;;;9.70;5.38;;;11.10;99.90;;;;;;5022120;28;20068;-31
2022/10/03 08:46:15;;;;;;;10.77;6.10;;;11.20;99.90;;;;;;5027865;28;20477;-31
2022/10/03 08:49:15;;;;;;;10.50;5.68;;;11.20;99.90;;;;;;5020298;28;20691;-36
2022/10/03 08:52:02;;;;;;;8.35;5.13;;;11.10;99.90;;;;;;5020463;28;20552;-35
2022/10/03 08:54:46;;;;;;;10.47;5.43;;;11.00;99.90;;;;;;5020259;28;20030;-31
2022/10/03 08:57:43;;;;;;;11.98;6.63;;;11.00;99.90;;;;;;5023293;28;20268;-32
2022/10/03 09:00:28;;;;;;;6.03;3.28;;;11.10;99.90;;;;;;5020509;28;20435;-33
2022/10/03 09:03:39;;;;;;;10.43;5.50;;;11.20;99.90;;;;;;5018149;28;20059;-35
2022/10/03 09:06:39;;;;;;;11.98;5.82;;;11.20;99.90;;;;;;5016729;28;20036;-34
2022/10/03 09:09:31;;;;;;;9.57;4.95;;;11.20;99.90;;;;;;5020358;28;20021;-32
2022/10/03 09:12:05;;;;;;;9.93;5.68;;;11.30;99.90;;;;;;5023306;28;20036;-31
2022/10/03 09:14:35;;;;;;;9.63;5.63;;;11.40;99.90;;;;;;5021786;28;20482;-33
2022/10/03 09:17:13;;;;;;;9.75;6.18;;;11.60;99.90;;;;;;5018510;28;20044;-32
2022/10/03 09:20:16;;;;;;;10.48;5.90;;;11.90;99.90;;;;;;5016754;28;20030;-35
2022/10/03 09:23:15;;;;;;;14.43;5.40;;;12.10;99.90;;;;;;5019202;28;20025;-32
2022/10/03 09:26:13;;;;;;;11.07;6.68;;;12.00;99.90;;;;;;5021460;28;20061;-33
2022/10/03 09:29:05;;;;;;;10.45;5.55;;;11.70;99.90;;;;;;5017582;28;20033;-34
2022/10/03 09:31:52;;;;;;;7.65;4.93;;;11.90;99.90;;;;;;5016414;28;20030;-31
2022/10/03 09:34:48;;;;;;;9.25;5.30;;;12.00;99.90;;;;;;5020488;28;20032;-31
2022/10/03 09:37:32;;;;;;;8.48;4.72;;;12.10;99.90;;;;;;5022188;28;20449;-35
2022/10/03 09:40:25;;;;;;;6.85;4.72;;;12.00;99.90;;;;;;5024575;28;20033;-37
2022/10/03 09:43:23;;;;;;;8.52;5.50;;;12.10;99.90;;;;;;5023913;28;20037;-34
2022/10/03 09:46:06;;;;;;;9.27;5.47;;;12.10;99.90;;;;;;5005076;28;20059;-31
2022/10/03 09:48:44;;;;;;;5.15;4.20;;;12.50;99.90;;;;;;5035714;28;20099;-31
2022/10/03 09:51:28;;;;;;;10.70;5.22;;;12.50;99.90;;;;;;5017896;28;20029;-33
2022/10/03 09:54:23;;;;;;;7.25;4.65;;;12.40;99.90;;;;;;5019314;28;20096;-35
2022/10/03 09:57:13;;;;;;;7.00;4.18;;;12.50;99.90;;;;;;4996783;28;20042;-31
2022/10/03 09:59:58;;;;;;;8.27;5.07;;;12.30;99.90;;;;;;5023800;28;20203;-34
2022/10/03 10:02:35;;;;;;;8.70;5.10;;;12.20;99.90;;;;;;5026062;28;20094;-31
2022/10/03 10:05:29;;;;;;;11.02;3.20;;;12.50;99.90;;;;;;5025026;28;20021;-33
2022/10/03 10:08:38;;;;;;;5.40;3.42;;;12.90;99.90;;;;;;5023715;28;20487;-33
2022/10/03 10:11:34;;;;;;;6.82;4.00;;;13.10;99.90;;;;;;4972993;28;20050;-32
2022/10/03 10:14:25;;;;;;;7.75;4.78;;;13.50;99.90;;;;;;5024281;28;20188;-33
2022/10/03 10:17:09;;;;;;;4.05;2.95;;;14.00;99.90;;;;;;5025212;28;20082;-33
2022/10/03 10:19:53;;;;;;;4.78;2.95;;;14.30;99.90;;;;;;5029436;28;20095;-32
2022/10/03 10:22:56;;;;;;;4.53;3.20;;;13.70;99.90;;;;;;5028912;28;20056;-31
2022/10/03 10:25:31;;;;;;;7.07;3.75;;;13.60;99.90;;;;;;5027634;28;20037;-31
2022/10/03 10:28:18;;;;;;;4.68;3.60;;;13.70;99.90;;;;;;5020752;28;20394;-31
2022/10/03 10:31:09;;;;;;;8.13;4.18;;;14.10;99.90;;;;;;5025799;28;20033;-32
2022/10/03 10:33:59;;;;;;;4.28;3.35;;;14.70;99.90;;;;;;5026592;28;20083;-34
2022/10/03 10:37:00;;;;;;;8.13;3.88;;;14.60;99.90;;;;;;5022150;28;20517;-32
2022/10/03 10:39:57;;;;;;;5.13;3.20;;;14.80;99.90;;;;;;5025241;28;20025;-35
2022/10/03 10:42:38;;;;;;;4.40;3.42;;;14.50;99.90;;;;;;5024710;28;20026;-32
2022/10/03 10:45:23;;;;;;;7.82;4.10;;;14.20;99.90;;;;;;5018933;28;20072;-32
2022/10/03 10:48:07;;;;;;;7.75;4.63;;;13.80;99.90;;;;;;5026529;28;20039;-31
2022/10/03 10:51:09;;;;;;;6.55;4.00;;;13.80;99.90;;;;;;5028531;28;20033;-31
2022/10/03 10:54:05;;;;;;;8.48;4.43;;;13.60;99.90;;;;;;5024748;28;20076;-30
2022/10/03 10:57:01;;;;;;;5.47;3.50;;;13.80;99.90;;;;;;5026944;28;20099;-32
2022/10/03 10:59:45;;;;;;;8.52;4.40;;;14.10;99.90;;;;;;5024109;28;20025;-31
2022/10/03 11:02:38;;;;;;;5.50;4.03;;;14.40;99.90;;;;;;5022047;28;20499;-33
2022/10/03 11:05:31;;;;;;;3.65;1.95;;;14.50;99.90;;;;;;5025672;28;20033;-32
2022/10/03 11:08:17;;;;;;;6.75;4.07;;;14.30;99.90;;;;;;5027717;28;20034;-31
2022/10/03 11:10:58;;;;;;;4.50;3.25;;;14.40;99.90;;;;;;5026180;28;20116;-33
2022/10/03 11:13:43;;;;;;;5.25;3.67;;;14.60;99.90;;;;;;5026834;28;20220;-32
2022/10/03 11:16:34;;;;;;;3.90;2.75;;;14.70;99.90;;;;;;5026588;28;20029;-32
2022/10/03 11:19:25;;;;;;;6.55;2.80;;;14.80;99.90;;;;;;5027389;28;20487;-33
2022/10/03 11:22:37;;;;;;;3.30;2.60;;;14.70;99.90;;;;;;5025105;28;20477;-32
2022/10/03 11:25:21;;;;;;;4.93;3.20;;;14.80;99.90;;;;;;5024241;28;20112;-32
2022/10/03 11:27:56;;;;;;;3.63;2.92;;;14.80;99.90;;;;;;5026768;28;20087;-32
2022/10/03 11:31:03;;;;;;;5.75;3.15;;;14.70;99.90;;;;;;5020526;28;20443;-33
2022/10/03 11:34:07;;;;;;;5.72;3.30;;;14.50;99.90;;;;;;5025095;28;20029;-37
2022/10/03 11:37:01;;;;;;;3.70;3.20;;;14.30;99.90;;;;;;4992383;28;20380;-32
2022/10/03 11:39:54;;;;;;;4.65;2.95;;;14.10;99.90;;;;;;5027192;28;20791;-37
2022/10/03 11:42:49;;;;;;;5.30;2.85;;;14.10;99.90;;;;;;5026133;28;20022;-33
2022/10/03 11:45:46;;;;;;;4.20;2.90;;;14.10;99.90;;;;;;5023789;28;20501;-32
2022/10/03 11:48:37;;;;;;;6.45;2.75;;;14.00;99.90;;;;;;5027221;28;20538;-32
2022/10/03 11:51:10;;;;;;;3.10;2.80;;;14.00;99.90;;;;;;5025503;28;20037;-33
2022/10/03 11:53:57;;;;;;;5.47;3.25;;;14.10;99.90;;;;;;5024799;28;20044;-32
2022/10/03 11:56:46;;;;;;;3.92;3.13;;;14.00;99.90;;;;;;5021807;28;20026;-31
2022/10/03 11:59:29;;;;;;;5.50;3.20;;;14.00;99.90;;;;;;5025864;28;20513;-32
2022/10/03 12:02:01;;;;;;;6.28;3.80;;;14.00;99.90;;;;;;5026914;28;20549;-32
2022/10/03 12:04:49;;;;;;;4.78;3.35;;;14.00;99.90;;;;;;5025890;28;20033;-33
2022/10/03 12:10:29;;;;;;;5.53;3.33;;;14.10;99.90;;;;;;5021740;28;20166;-31
2022/10/03 12:12:56;;;;;;;6.00;3.88;;;14.30;99.90;;;;;;5027992;28;20044;-33
2022/10/03 12:15:53;;;;;;;3.97;2.70;;;14.30;99.90;;;;;;5020971;28;20048;-34
2022/10/03 12:18:33;;;;;;;5.13;3.45;;;14.40;99.90;;;;;;5017957;28;20280;-31
2022/10/03 12:21:05;;;;;;;4.35;3.00;;;14.40;99.90;;;;;;5023718;28;20042;-32
2022/10/03 12:23:51;;;;;;;5.35;3.00;;;14.20;99.90;;;;;;5022054;28;20406;-37
2022/10/03 12:26:43;;;;;;;5.25;3.53;;;14.10;99.90;;;;;;5021848;28;20112;-32
2022/10/03 12:29:12;;;;;;;6.07;3.15;;;13.90;99.90;;;;;;5015308;28;20052;-32
2022/10/03 12:32:04;;;;;;;;;;;14.00;99.90;;;;;;5020180;28;20503;-33
2022/10/03 12:34:38;;;;;;;6.60;3.10;;;14.00;99.90;;;;;;5007870;28;20016;-34
2022/10/03 12:37:12;;;;;;;5.82;3.20;;;13.90;99.90;;;;;;5024671;28;20514;-32
2022/10/03 12:40:04;;;;;;;6.75;2.90;;;14.00;99.90;;;;;;5017282;28;20228;-33
2022/10/03 12:42:54;;;;;;;3.65;2.67;;;13.90;99.90;;;;;;5024143;28;20021;-33
2022/10/03 12:45:24;;;;;;;3.70;2.40;;;13.90;99.90;;;;;;5023980;28;20448;-32
2022/10/03 12:47:59;;;;;;;5.00;2.53;;;14.00;99.90;;;;;;5023404;28;20049;-34
2022/10/03 12:50:42;;;;;;;5.40;2.58;;;14.00;99.90;;;;;;5021601;28;20515;-37
2022/10/03 12:53:14;;;;;;;7.90;2.80;;;14.00;99.90;;;;;;5024193;28;20030;-35
2022/10/03 12:56:05;;;;;;;8.23;2.60;;;14.00;99.90;;;;;;5019652;28;20644;-32
2022/10/03 12:58:58;;;;;;;7.93;3.10;;;13.90;99.90;;;;;;5017436;28;20034;-31
2022/10/03 13:01:27;;;;;;;5.28;2.42;;;13.90;99.90;;;;;;5015852;28;20052;-36
2022/10/03 13:04:19;;;;;;;3.78;2.20;;;14.10;99.90;;;;;;5016729;28;20029;-33
2022/10/03 13:06:53;;;;;;;4.15;2.70;;;13.80;99.90;;;;;;4983032;28;20482;-32
2022/10/03 13:09:49;;;;;;;5.07;2.00;;;13.60;99.90;;;;;;5019392;28;21424;-32
2022/10/03 13:12:34;;;;;;;4.38;2.10;;;13.50;99.90;;;;;;5022845;28;20490;-32
2022/10/03 13:15:02;;;;;;;5.25;2.00;;;13.40;99.90;;;;;;5023223;28;20044;-32
2022/10/03 13:17:27;;;;;;;3.00;2.13;;;13.40;99.90;;;;;;5026422;28;20053;-32
2022/10/03 13:20:05;;;;;;;3.28;1.98;;;13.30;99.90;;;;;;5023824;28;20041;-32
2022/10/03 13:22:36;;;;;;;5.30;2.00;;;13.30;99.90;;;;;;5019330;28;20026;-32
2022/10/03 13:25:17;;;;;;;6.20;2.00;;;13.40;99.90;;;;;;5027805;28;20087;-33
2022/10/03 13:27:52;;;;;;;7.20;2.40;;;13.60;99.90;;;;;;5016929;28;20123;-32
2022/10/03 13:30:24;;;;;;;3.95;2.45;;;13.80;99.90;;;;;;5019175;28;20037;-36
2022/10/03 13:33:19;;;;;;;3.47;1.83;;;13.90;99.90;;;;;;5023644;28;20395;-34
2022/10/03 13:36:01;;;;;;;4.07;1.95;;;14.00;99.90;;;;;;5022199;28;20026;-34
2022/10/03 13:39:09;;;;;;;3.85;1.70;;;14.10;99.90;;;;;;5023493;28;20514;-32
2022/10/03 13:41:54;;;;;;;;;;;14.20;99.90;;;;;;4985851;28;20135;-32
2022/10/03 13:44:23;;;;;;;4.15;1.83;;;14.10;99.90;;;;;;5040599;28;20396;-31
2022/10/03 13:47:14;;;;;;;7.18;2.30;;;14.00;99.90;;;;;;5030516;28;20033;-32
2022/10/03 13:49:54;;;;;;;2.70;2.10;;;13.90;99.90;;;;;;5015576;28;20132;-33
2022/10/03 13:52:42;;;;;;;6.85;1.80;;;13.80;99.90;;;;;;5024351;28;20480;-32
2022/10/03 13:55:35;;;;;;;2.83;1.73;;;13.80;99.90;;;;;;5023897;28;21591;-33
2022/10/03 13:58:37;;;;;;;2.08;1.60;;;13.80;99.90;;;;;;5025161;28;20060;-36
2022/10/03 14:01:03;;;;;;;5.50;2.00;;;13.80;99.90;;;;;;5023360;28;20550;-31
2022/10/03 14:03:53;;;;;;;2.20;2.00;;;13.80;99.90;;;;;;5022676;28;20485;-31
2022/10/03 14:06:25;;;;;;;2.85;1.77;;;13.80;99.90;;;;;;5027779;28;20030;-31
2022/10/03 14:09:35;;;;;;;4.03;2.10;;;13.90;99.90;;;;;;5019230;28;20025;-33
2022/10/03 14:12:19;;;;;;;1.80;1.70;;;14.00;99.90;;;;;;4973780;28;20085;-34
2022/10/03 14:15:22;;;;;;;6.57;2.20;;;14.10;99.90;;;;;;5023398;28;20056;-34
2022/10/03 14:18:06;;;;;;;6.07;1.70;;;14.30;99.90;;;;;;5025066;28;20483;-34
2022/10/03 14:20:52;;;;;;;6.57;1.60;;;14.30;99.90;;;;;;5013640;28;20930;-35
2022/10/03 14:23:24;;;;;;;3.05;1.80;;;14.20;99.90;;;;;;5021623;28;20039;-35
2022/10/03 14:26:03;;;;;;;7.13;2.45;;;14.10;99.90;;;;;;5024835;28;20396;-32
2022/10/03 14:28:38;;;;;;;1.88;1.60;;;13.90;99.90;;;;;;5017206;28;20049;-38
2022/10/03 14:31:07;;;;;;;4.53;1.80;;;13.80;99.90;;;;;;5015318;28;20463;-32
2022/10/03 14:33:37;;;;;;;2.50;1.73;;;13.60;99.90;;;;;;5006339;28;20018;-37
2022/10/03 14:36:10;;;;;;;3.65;1.80;;;13.50;99.90;;;;;;5018060;28;20029;-32
2022/10/03 14:39:02;;;;;;;2.50;1.60;;;13.50;99.90;;;;;;5026480;28;20025;-32
2022/10/03 14:41:36;;;;;;;2.22;2.05;;;13.50;99.90;;;;;;5022003;28;20057;-32